Weather at Moose Country Heliport

Public forecast

Using degrees Fahrenheit for public forecast. Weather courtesy of forecast.io.

Closest aviation weather report (METAR) to Moose Country Heliport

Closest report is Glacier Park International Airport, 47.2 nm (87.5 km) SE.

2024/07/15 13:55 (retrieved 30 minutes ago)

KGPI 151355Z AUTO 00000KT 10SM CLR 18/12 A3002 RMK AO2 SLP141 T01780117

Closest aviation forecast (TAF) to Moose Country Heliport

Closest forecast is Glacier Park International Airport, 47.2 nm (87.5 km) SE.

2024/07/15 12:22 (retrieved 2 hours ago)

TAF KGPI 151120Z 1512/1612 VRB04KT P6SM SKC FM151800 16008KT P6SM SKC FM152300 21008KT P6SM SKC